sensor_id;sensor_type;location;lat;lon;timestamp;pressure;altitude;pressure_sealevel;temperature;humidity
65181;BME280;51765;48.112;11.766;2022-12-10T00:01:33;94115.69;;;-0.75;100.00
65181;BME280;51765;48.112;11.766;2022-12-10T00:04:00;94118.28;;;-0.83;100.00
65181;BME280;51765;48.112;11.766;2022-12-10T00:06:29;94106.09;;;-0.81;100.00
65181;BME280;51765;48.112;11.766;2022-12-10T00:08:56;94109.91;;;-0.77;100.00
65181;BME280;51765;48.112;11.766;2022-12-10T00:11:24;94103.81;;;-0.76;100.00
65181;BME280;51765;48.112;11.766;2022-12-10T00:13:51;94113.28;;;-0.76;100.00
65181;BME280;51765;48.112;11.766;2022-12-10T00:16:19;94112.94;;;-0.73;100.00
65181;BME280;51765;48.112;11.766;2022-12-10T00:18:45;94106.81;;;-0.72;100.00
65181;BME280;51765;48.112;11.766;2022-12-10T00:21:13;94108.25;;;-0.70;100.00
65181;BME280;51765;48.112;11.766;2022-12-10T00:23:44;94120.41;;;-0.63;100.00
65181;BME280;51765;48.112;11.766;2022-12-10T00:26:12;94109.88;;;-0.68;100.00
65181;BME280;51765;48.112;11.766;2022-12-10T00:28:39;94110.81;;;-0.70;100.00
65181;BME280;51765;48.112;11.766;2022-12-10T00:31:10;94100.75;;;-0.79;100.00
65181;BME280;51765;48.112;11.766;2022-12-10T00:33:37;94111.84;;;-0.79;100.00
65181;BME280;51765;48.112;11.766;2022-12-10T00:36:04;94111.53;;;-0.76;100.00
65181;BME280;51765;48.112;11.766;2022-12-10T00:38:31;94106.53;;;-0.77;100.00
65181;BME280;51765;48.112;11.766;2022-12-10T00:40:59;94106.22;;;-0.74;100.00
65181;BME280;51765;48.112;11.766;2022-12-10T00:43:29;94108.59;;;-0.73;100.00
65181;BME280;51765;48.112;11.766;2022-12-10T00:45:56;94113.06;;;-0.66;100.00
65181;BME280;51765;48.112;11.766;2022-12-10T00:48:23;94116.09;;;-0.63;100.00
65181;BME280;51765;48.112;11.766;2022-12-10T00:50:57;94117.41;;;-0.67;100.00
65181;BME280;51765;48.112;11.766;2022-12-10T00:53:24;94120.59;;;-0.65;100.00
65181;BME280;51765;48.112;11.766;2022-12-10T00:55:51;94122.19;;;-0.64;100.00
65181;BME280;51765;48.112;11.766;2022-12-10T00:58:19;94123.81;;;-0.63;100.00
65181;BME280;51765;48.112;11.766;2022-12-10T01:00:45;94138.25;;;-0.62;100.00
65181;BME280;51765;48.112;11.766;2022-12-10T01:03:12;94138.44;;;-0.63;100.00
65181;BME280;51765;48.112;11.766;2022-12-10T01:05:43;94147.31;;;-0.66;100.00
65181;BME280;51765;48.112;11.766;2022-12-10T01:08:13;94141.34;;;-0.66;100.00
65181;BME280;51765;48.112;11.766;2022-12-10T01:10:41;94149.53;;;-0.63;100.00
65181;BME280;51765;48.112;11.766;2022-12-10T01:13:10;94148.53;;;-0.62;100.00
65181;BME280;51765;48.112;11.766;2022-12-10T01:15:38;94152.47;;;-0.66;100.00
65181;BME280;51765;48.112;11.766;2022-12-10T01:18:05;94151.63;;;-0.66;100.00
65181;BME280;51765;48.112;11.766;2022-12-10T01:20:34;94137.63;;;-0.64;100.00
65181;BME280;51765;48.112;11.766;2022-12-10T01:23:01;94143.56;;;-0.63;100.00
65181;BME280;51765;48.112;11.766;2022-12-10T01:25:27;94136.50;;;-0.61;100.00
65181;BME280;51765;48.112;11.766;2022-12-10T01:27:54;94132.16;;;-0.61;100.00
65181;BME280;51765;48.112;11.766;2022-12-10T01:30:23;94121.25;;;-0.63;100.00
65181;BME280;51765;48.112;11.766;2022-12-10T01:32:51;94124.91;;;-0.57;100.00
65181;BME280;51765;48.112;11.766;2022-12-10T01:35:17;94127.97;;;-0.62;100.00
65181;BME280;51765;48.112;11.766;2022-12-10T01:37:46;94128.78;;;-0.61;100.00
65181;BME280;51765;48.112;11.766;2022-12-10T01:40:12;94125.50;;;-0.55;100.00
65181;BME280;51765;48.112;11.766;2022-12-10T01:42:39;94142.59;;;-0.62;100.00
65181;BME280;51765;48.112;11.766;2022-12-10T01:45:10;94144.09;;;-0.68;100.00
65181;BME280;51765;48.112;11.766;2022-12-10T01:47:37;94132.03;;;-0.67;100.00
65181;BME280;51765;48.112;11.766;2022-12-10T01:50:07;94138.78;;;-0.66;100.00
65181;BME280;51765;48.112;11.766;2022-12-10T01:52:36;94150.84;;;-0.67;100.00
65181;BME280;51765;48.112;11.766;2022-12-10T01:55:07;94153.25;;;-0.65;100.00
65181;BME280;51765;48.112;11.766;2022-12-10T01:57:34;94167.53;;;-0.63;100.00
65181;BME280;51765;48.112;11.766;2022-12-10T02:00:03;94171.56;;;-0.60;100.00
65181;BME280;51765;48.112;11.766;2022-12-10T02:02:42;94160.63;;;-0.62;100.00
65181;BME280;51765;48.112;11.766;2022-12-10T02:05:14;94175.75;;;-0.67;100.00
65181;BME280;51765;48.112;11.766;2022-12-10T02:07:59;94171.91;;;-0.72;100.00
65181;BME280;51765;48.112;11.766;2022-12-10T02:10:32;94175.97;;;-0.77;100.00
65181;BME280;51765;48.112;11.766;2022-12-10T02:13:06;94175.19;;;-0.78;100.00
65181;BME280;51765;48.112;11.766;2022-12-10T02:15:35;94172.25;;;-0.75;100.00
65181;BME280;51765;48.112;11.766;2022-12-10T02:18:08;94165.31;;;-0.66;100.00
65181;BME280;51765;48.112;11.766;2022-12-10T02:20:38;94161.75;;;-0.65;100.00
65181;BME280;51765;48.112;11.766;2022-12-10T02:23:08;94164.31;;;-0.65;100.00
65181;BME280;51765;48.112;11.766;2022-12-10T02:25:37;94161.31;;;-0.68;100.00
65181;BME280;51765;48.112;11.766;2022-12-10T02:28:08;94168.38;;;-0.71;100.00
65181;BME280;51765;48.112;11.766;2022-12-10T02:30:40;94167.41;;;-0.70;100.00
65181;BME280;51765;48.112;11.766;2022-12-10T02:33:07;94160.19;;;-0.66;100.00
65181;BME280;51765;48.112;11.766;2022-12-10T02:35:35;94149.19;;;-0.60;100.00
65181;BME280;51765;48.112;11.766;2022-12-10T02:38:06;94153.41;;;-0.67;100.00
65181;BME280;51765;48.112;11.766;2022-12-10T02:40:35;94148.72;;;-0.63;100.00
65181;BME280;51765;48.112;11.766;2022-12-10T02:43:06;94151.63;;;-0.66;100.00
65181;BME280;51765;48.112;11.766;2022-12-10T02:45:37;94154.22;;;-0.66;100.00
65181;BME280;51765;48.112;11.766;2022-12-10T02:48:07;94150.50;;;-0.64;100.00
65181;BME280;51765;48.112;11.766;2022-12-10T02:50:39;94145.34;;;-0.64;100.00
65181;BME280;51765;48.112;11.766;2022-12-10T02:53:06;94146.78;;;-0.61;100.00
65181;BME280;51765;48.112;11.766;2022-12-10T02:55:37;94151.28;;;-0.63;100.00
65181;BME280;51765;48.112;11.766;2022-12-10T02:58:12;94145.53;;;-0.65;100.00
65181;BME280;51765;48.112;11.766;2022-12-10T03:00:45;94149.88;;;-0.66;100.00
65181;BME280;51765;48.112;11.766;2022-12-10T03:03:22;94143.75;;;-0.65;100.00
65181;BME280;51765;48.112;11.766;2022-12-10T03:05:53;94138.09;;;-0.60;100.00
65181;BME280;51765;48.112;11.766;2022-12-10T03:08:23;94135.84;;;-0.63;100.00
65181;BME280;51765;48.112;11.766;2022-12-10T03:10:52;94135.69;;;-0.62;100.00
65181;BME280;51765;48.112;11.766;2022-12-10T03:13:21;94131.41;;;-0.70;100.00
65181;BME280;51765;48.112;11.766;2022-12-10T03:15:50;94128.78;;;-0.61;100.00
65181;BME280;51765;48.112;11.766;2022-12-10T03:18:18;94120.72;;;-0.58;100.00
65181;BME280;51765;48.112;11.766;2022-12-10T03:20:48;94123.97;;;-0.64;100.00
65181;BME280;51765;48.112;11.766;2022-12-10T03:23:20;94138.34;;;-0.70;100.00
65181;BME280;51765;48.112;11.766;2022-12-10T03:25:46;94133.34;;;-0.72;100.00
65181;BME280;51765;48.112;11.766;2022-12-10T03:28:14;94137.88;;;-0.74;100.00
65181;BME280;51765;48.112;11.766;2022-12-10T03:30:42;94130.16;;;-0.74;100.00
65181;BME280;51765;48.112;11.766;2022-12-10T03:33:09;94139.47;;;-0.73;100.00
65181;BME280;51765;48.112;11.766;2022-12-10T03:35:36;94141.22;;;-0.73;100.00
65181;BME280;51765;48.112;11.766;2022-12-10T03:38:08;94130.94;;;-0.73;100.00
65181;BME280;51765;48.112;11.766;2022-12-10T03:40:36;94124.66;;;-0.71;100.00
65181;BME280;51765;48.112;11.766;2022-12-10T03:43:03;94135.28;;;-0.74;100.00
65181;BME280;51765;48.112;11.766;2022-12-10T03:45:30;94137.34;;;-0.69;100.00
65181;BME280;51765;48.112;11.766;2022-12-10T03:47:56;94133.06;;;-0.77;100.00
65181;BME280;51765;48.112;11.766;2022-12-10T03:50:23;94133.25;;;-0.78;100.00
65181;BME280;51765;48.112;11.766;2022-12-10T03:52:50;94132.72;;;-0.74;100.00
65181;BME280;51765;48.112;11.766;2022-12-10T03:55:18;94134.81;;;-0.77;100.00
65181;BME280;51765;48.112;11.766;2022-12-10T03:57:45;94132.72;;;-0.74;100.00
65181;BME280;51765;48.112;11.766;2022-12-10T04:00:12;94123.22;;;-0.73;100.00
65181;BME280;51765;48.112;11.766;2022-12-10T04:02:40;94130.50;;;-0.77;100.00
65181;BME280;51765;48.112;11.766;2022-12-10T04:05:07;94136.44;;;-0.76;100.00
65181;BME280;51765;48.112;11.766;2022-12-10T04:07:36;94133.06;;;-0.77;100.00
65181;BME280;51765;48.112;11.766;2022-12-10T04:10:05;94138.03;;;-0.75;100.00
65181;BME280;51765;48.112;11.766;2022-12-10T04:12:34;94138.22;;;-0.77;100.00
65181;BME280;51765;48.112;11.766;2022-12-10T04:15:00;94145.75;;;-0.75;100.00
65181;BME280;51765;48.112;11.766;2022-12-10T04:17:45;94137.38;;;-0.77;100.00
65181;BME280;51765;48.112;11.766;2022-12-10T04:20:11;94143.97;;;-0.75;100.00
65181;BME280;51765;48.112;11.766;2022-12-10T04:22:52;94146.72;;;-0.76;100.00
65181;BME280;51765;48.112;11.766;2022-12-10T04:25:36;94147.97;;;-0.72;100.00
65181;BME280;51765;48.112;11.766;2022-12-10T04:28:21;94153.28;;;-0.74;100.00
65181;BME280;51765;48.112;11.766;2022-12-10T04:30:48;94147.53;;;-0.76;100.00
65181;BME280;51765;48.112;11.766;2022-12-10T04:33:15;94151.69;;;-0.75;100.00
65181;BME280;51765;48.112;11.766;2022-12-10T04:35:41;94150.72;;;-0.74;100.00
65181;BME280;51765;48.112;11.766;2022-12-10T04:38:11;94135.28;;;-0.74;100.00
65181;BME280;51765;48.112;11.766;2022-12-10T04:40:38;94141.22;;;-0.73;100.00
65181;BME280;51765;48.112;11.766;2022-12-10T04:43:04;94139.97;;;-0.77;100.00
65181;BME280;51765;48.112;11.766;2022-12-10T04:45:34;94136.06;;;-0.73;100.00
65181;BME280;51765;48.112;11.766;2022-12-10T04:48:01;94134.78;;;-0.69;100.00
65181;BME280;51765;48.112;11.766;2022-12-10T04:50:28;94141.06;;;-0.72;100.00
65181;BME280;51765;48.112;11.766;2022-12-10T04:52:55;94142.31;;;-0.67;100.00
65181;BME280;51765;48.112;11.766;2022-12-10T04:55:24;94138.22;;;-0.77;100.00
65181;BME280;51765;48.112;11.766;2022-12-10T04:57:50;94148.94;;;-0.73;100.00
65181;BME280;51765;48.112;11.766;2022-12-10T05:00:17;94147.69;;;-0.77;100.00
65181;BME280;51765;48.112;11.766;2022-12-10T05:02:45;94145.44;;;-0.80;100.00
65181;BME280;51765;48.112;11.766;2022-12-10T05:05:13;94151.28;;;-0.87;100.00
65181;BME280;51765;48.112;11.766;2022-12-10T05:07:40;94153.38;;;-0.90;100.00
65181;BME280;51765;48.112;11.766;2022-12-10T05:10:07;94148.28;;;-0.98;100.00
65181;BME280;51765;48.112;11.766;2022-12-10T05:12:34;94144.41;;;-0.94;100.00
65181;BME280;51765;48.112;11.766;2022-12-10T05:15:00;94142.19;;;-0.97;100.00
65181;BME280;51765;48.112;11.766;2022-12-10T05:17:27;94140.31;;;-1.04;100.00
65181;BME280;51765;48.112;11.766;2022-12-10T05:19:57;94152.69;;;-1.07;100.00
65181;BME280;51765;48.112;11.766;2022-12-10T05:22:24;94141.25;;;-1.05;100.00
65181;BME280;51765;48.112;11.766;2022-12-10T05:25:08;94141.59;;;-1.08;100.00
65181;BME280;51765;48.112;11.766;2022-12-10T05:27:37;94145.44;;;-1.04;100.00
65181;BME280;51765;48.112;11.766;2022-12-10T05:30:04;94144.13;;;-0.99;100.00
65181;BME280;51765;48.112;11.766;2022-12-10T05:32:31;94144.00;;;-1.06;100.00
65181;BME280;51765;48.112;11.766;2022-12-10T05:35:00;94156.22;;;-1.08;100.00
65181;BME280;51765;48.112;11.766;2022-12-10T05:37:27;94148.97;;;-1.05;100.00
65181;BME280;51765;48.112;11.766;2022-12-10T05:39:54;94143.19;;;-1.07;100.00
65181;BME280;51765;48.112;11.766;2022-12-10T05:42:20;94149.31;;;-1.08;100.00
65181;BME280;51765;48.112;11.766;2022-12-10T05:44:47;94144.44;;;-1.02;100.00
65181;BME280;51765;48.112;11.766;2022-12-10T05:47:14;94155.41;;;-1.09;100.00
65181;BME280;51765;48.112;11.766;2022-12-10T05:49:40;94153.16;;;-1.04;100.00
65181;BME280;51765;48.112;11.766;2022-12-10T05:52:08;94163.44;;;-1.04;100.00
65181;BME280;51765;48.112;11.766;2022-12-10T05:54:35;94150.75;;;-1.05;100.00
65181;BME280;51765;48.112;11.766;2022-12-10T05:57:02;94157.03;;;-1.08;100.00
65181;BME280;51765;48.112;11.766;2022-12-10T05:59:29;94163.75;;;-1.07;100.00
65181;BME280;51765;48.112;11.766;2022-12-10T06:01:56;94158.34;;;-1.12;100.00
65181;BME280;51765;48.112;11.766;2022-12-10T06:04:22;94164.25;;;-1.11;100.00
65181;BME280;51765;48.112;11.766;2022-12-10T06:06:49;94166.19;;;-1.05;100.00
65181;BME280;51765;48.112;11.766;2022-12-10T06:09:17;94166.97;;;-1.05;100.00
65181;BME280;51765;48.112;11.766;2022-12-10T06:11:45;94158.59;;;-1.07;100.00
65181;BME280;51765;48.112;11.766;2022-12-10T06:14:12;94171.47;;;-1.07;100.00
65181;BME280;51765;48.112;11.766;2022-12-10T06:16:38;94172.78;;;-1.11;100.00
65181;BME280;51765;48.112;11.766;2022-12-10T06:19:07;94174.41;;;-1.18;100.00
65181;BME280;51765;48.112;11.766;2022-12-10T06:21:33;94176.84;;;-1.16;100.00
65181;BME280;51765;48.112;11.766;2022-12-10T06:24:02;94178.75;;;-1.18;100.00
65181;BME280;51765;48.112;11.766;2022-12-10T06:26:31;94175.38;;;-1.11;100.00
65181;BME280;51765;48.112;11.766;2022-12-10T06:29:01;94168.88;;;-1.07;100.00
65181;BME280;51765;48.112;11.766;2022-12-10T06:31:29;94170.38;;;-1.12;100.00
65181;BME280;51765;48.112;11.766;2022-12-10T06:33:56;94166.19;;;-1.05;100.00
65181;BME280;51765;48.112;11.766;2022-12-10T06:36:23;94165.09;;;-1.11;100.00
65181;BME280;51765;48.112;11.766;2022-12-10T06:38:50;94162.53;;;-1.19;100.00
65181;BME280;51765;48.112;11.766;2022-12-10T06:41:18;94166.25;;;-1.22;100.00
65181;BME280;51765;48.112;11.766;2022-12-10T06:43:47;94162.41;;;-1.26;100.00
65181;BME280;51765;48.112;11.766;2022-12-10T06:46:14;94167.84;;;-1.21;100.00
65181;BME280;51765;48.112;11.766;2022-12-10T06:48:41;94167.66;;;-1.11;100.00
65181;BME280;51765;48.112;11.766;2022-12-10T06:51:08;94175.06;;;-1.16;100.00
65181;BME280;51765;48.112;11.766;2022-12-10T06:53:35;94174.50;;;-1.03;100.00
65181;BME280;51765;48.112;11.766;2022-12-10T06:56:04;94174.66;;;-0.96;100.00
65181;BME280;51765;48.112;11.766;2022-12-10T06:58:35;94181.09;;;-1.00;100.00
65181;BME280;51765;48.112;11.766;2022-12-10T07:01:05;94179.97;;;-0.98;100.00
65181;BME280;51765;48.112;11.766;2022-12-10T07:03:31;94185.28;;;-0.99;100.00
65181;BME280;51765;48.112;11.766;2022-12-10T07:06:01;94194.56;;;-0.98;100.00
65181;BME280;51765;48.112;11.766;2022-12-10T07:08:28;94179.78;;;-0.96;100.00
65181;BME280;51765;48.112;11.766;2022-12-10T07:10:55;94179.97;;;-0.98;100.00
65181;BME280;51765;48.112;11.766;2022-12-10T07:13:22;94182.53;;;-0.98;100.00
65181;BME280;51765;48.112;11.766;2022-12-10T07:15:48;94184.72;;;-0.87;100.00
65181;BME280;51765;48.112;11.766;2022-12-10T07:18:17;94174.94;;;-0.91;100.00
65181;BME280;51765;48.112;11.766;2022-12-10T07:20:43;94182.78;;;-0.84;100.00
65181;BME280;51765;48.112;11.766;2022-12-10T07:23:10;94177.44;;;-0.83;100.00
65181;BME280;51765;48.112;11.766;2022-12-10T07:25:36;94183.41;;;-0.82;100.00
65181;BME280;51765;48.112;11.766;2022-12-10T07:28:06;94178.88;;;-0.80;100.00
65181;BME280;51765;48.112;11.766;2022-12-10T07:30:32;94174.56;;;-0.80;100.00
65181;BME280;51765;48.112;11.766;2022-12-10T07:32:59;94170.16;;;-0.71;100.00
65181;BME280;51765;48.112;11.766;2022-12-10T07:35:28;94166.16;;;-0.74;100.00
65181;BME280;51765;48.112;11.766;2022-12-10T07:37:54;94170.16;;;-0.71;100.00
65181;BME280;51765;48.112;11.766;2022-12-10T07:40:22;94172.88;;;-0.64;100.00
65181;BME280;51765;48.112;11.766;2022-12-10T07:42:49;94171.88;;;-0.63;100.00
65181;BME280;51765;48.112;11.766;2022-12-10T07:45:16;94170.22;;;-0.56;100.00
65181;BME280;51765;48.112;11.766;2022-12-10T07:47:42;94176.91;;;-0.47;100.00
65181;BME280;51765;48.112;11.766;2022-12-10T07:50:10;94173.16;;;-0.36;100.00
65181;BME280;51765;48.112;11.766;2022-12-10T07:52:38;94175.91;;;-0.38;100.00
65181;BME280;51765;48.112;11.766;2022-12-10T07:55:05;94173.03;;;-0.43;100.00
65181;BME280;51765;48.112;11.766;2022-12-10T07:57:32;94169.13;;;-0.39;100.00
65181;BME280;51765;48.112;11.766;2022-12-10T07:59:59;94171.53;;;-0.37;100.00
65181;BME280;51765;48.112;11.766;2022-12-10T08:02:37;94172.06;;;-0.42;100.00
65181;BME280;51765;48.112;11.766;2022-12-10T08:05:04;94171.19;;;-0.34;100.00
65181;BME280;51765;48.112;11.766;2022-12-10T08:07:31;94168.72;;;-0.27;100.00
65181;BME280;51765;48.112;11.766;2022-12-10T08:10:00;94164.72;;;-0.30;100.00
65181;BME280;51765;48.112;11.766;2022-12-10T08:12:27;94168.44;;;-0.32;100.00
65181;BME280;51765;48.112;11.766;2022-12-10T08:14:53;94163.53;;;-0.19;100.00
65181;BME280;51765;48.112;11.766;2022-12-10T08:17:20;94169.94;;;-0.15;100.00
65181;BME280;51765;48.112;11.766;2022-12-10T08:19:47;94168.78;;;-0.12;100.00
65181;BME280;51765;48.112;11.766;2022-12-10T08:22:14;94169.69;;;-0.05;100.00
65181;BME280;51765;48.112;11.766;2022-12-10T08:24:41;94171.06;;;0.06;100.00
65181;BME280;51765;48.112;11.766;2022-12-10T08:27:09;94172.25;;;-0.05;100.00
65181;BME280;51765;48.112;11.766;2022-12-10T08:29:36;94175.44;;;-0.18;100.00
65181;BME280;51765;48.112;11.766;2022-12-10T08:32:05;94171.84;;;-0.17;100.00
65181;BME280;51765;48.112;11.766;2022-12-10T08:34:32;94167.97;;;-0.13;100.00
65181;BME280;51765;48.112;11.766;2022-12-10T08:37:00;94176.47;;;-0.27;100.00
65181;BME280;51765;48.112;11.766;2022-12-10T08:39:27;94167.78;;;-0.26;100.00
65181;BME280;51765;48.112;11.766;2022-12-10T08:41:53;94173.41;;;-0.31;100.00
65181;BME280;51765;48.112;11.766;2022-12-10T08:44:21;94180.63;;;-0.26;100.00
65181;BME280;51765;48.112;11.766;2022-12-10T08:46:48;94186.63;;;-0.11;100.00
65181;BME280;51765;48.112;11.766;2022-12-10T08:49:15;94181.91;;;-0.07;100.00
65181;BME280;51765;48.112;11.766;2022-12-10T08:51:42;94185.69;;;0.05;100.00
65181;BME280;51765;48.112;11.766;2022-12-10T08:54:09;94182.44;;;0.11;100.00
65181;BME280;51765;48.112;11.766;2022-12-10T08:56:35;94192.56;;;0.13;100.00
65181;BME280;51765;48.112;11.766;2022-12-10T08:59:04;94191.91;;;-0.04;100.00
65181;BME280;51765;48.112;11.766;2022-12-10T09:01:32;94194.84;;;-0.15;100.00
65181;BME280;51765;48.112;11.766;2022-12-10T09:03:59;94194.19;;;-0.09;100.00
65181;BME280;51765;48.112;11.766;2022-12-10T09:06:27;94186.69;;;-0.19;100.00
65181;BME280;51765;48.112;11.766;2022-12-10T09:08:56;94187.91;;;-0.30;100.00
65181;BME280;51765;48.112;11.766;2022-12-10T09:11:24;94195.78;;;-0.31;100.00
65181;BME280;51765;48.112;11.766;2022-12-10T09:13:55;94196.13;;;-0.11;100.00
65181;BME280;51765;48.112;11.766;2022-12-10T09:16:27;94199.28;;;-0.01;100.00
65181;BME280;51765;48.112;11.766;2022-12-10T09:18:55;94209.16;;;-0.13;100.00
65181;BME280;51765;48.112;11.766;2022-12-10T09:21:25;94204.94;;;-0.29;100.00
65181;BME280;51765;48.112;11.766;2022-12-10T09:23:52;94203.56;;;-0.16;100.00
65181;BME280;51765;48.112;11.766;2022-12-10T09:26:19;94213.63;;;-0.07;100.00
65181;BME280;51765;48.112;11.766;2022-12-10T09:28:49;94201.59;;;0.09;100.00
65181;BME280;51765;48.112;11.766;2022-12-10T09:31:16;94213.50;;;0.10;100.00
65181;BME280;51765;48.112;11.766;2022-12-10T09:33:44;94222.88;;;0.03;100.00
65181;BME280;51765;48.112;11.766;2022-12-10T09:36:12;94212.16;;;-0.01;100.00
65181;BME280;51765;48.112;11.766;2022-12-10T09:38:42;94211.63;;;0.04;100.00
65181;BME280;51765;48.112;11.766;2022-12-10T09:41:14;94204.78;;;-0.04;100.00
65181;BME280;51765;48.112;11.766;2022-12-10T09:43:50;94212.75;;;0.01;100.00
65181;BME280;51765;48.112;11.766;2022-12-10T09:46:21;94206.13;;;0.07;100.00
65181;BME280;51765;48.112;11.766;2022-12-10T09:48:56;94205.38;;;-0.02;100.00
65181;BME280;51765;48.112;11.766;2022-12-10T09:51:28;94215.50;;;-0.01;100.00
65181;BME280;51765;48.112;11.766;2022-12-10T09:53:58;94217.84;;;0.09;100.00
65181;BME280;51765;48.112;11.766;2022-12-10T09:56:28;94212.38;;;-0.11;100.00
65181;BME280;51765;48.112;11.766;2022-12-10T09:58:56;94218.78;;;-0.30;100.00
65181;BME280;51765;48.112;11.766;2022-12-10T10:01:27;94209.31;;;-0.29;100.00
65181;BME280;51765;48.112;11.766;2022-12-10T10:03:54;94219.88;;;-0.24;100.00
65181;BME280;51765;48.112;11.766;2022-12-10T10:06:20;94213.75;;;-0.23;100.00
65181;BME280;51765;48.112;11.766;2022-12-10T10:08:50;94211.34;;;-0.25;100.00
65181;BME280;51765;48.112;11.766;2022-12-10T10:11:19;94207.59;;;-0.14;100.00
65181;BME280;51765;48.112;11.766;2022-12-10T10:13:47;94207.00;;;-0.01;100.00
65181;BME280;51765;48.112;11.766;2022-12-10T10:16:21;94203.09;;;-0.20;100.00
65181;BME280;51765;48.112;11.766;2022-12-10T10:18:52;94206.72;;;-0.29;100.00
65181;BME280;51765;48.112;11.766;2022-12-10T10:21:21;94201.28;;;-0.35;100.00
65181;BME280;51765;48.112;11.766;2022-12-10T10:23:50;94206.22;;;-0.25;100.00
65181;BME280;51765;48.112;11.766;2022-12-10T10:26:17;94197.53;;;-0.24;100.00
65181;BME280;51765;48.112;11.766;2022-12-10T10:28:44;94205.50;;;-0.19;100.00
65181;BME280;51765;48.112;11.766;2022-12-10T10:31:15;94207.91;;;0.06;100.00
65181;BME280;51765;48.112;11.766;2022-12-10T10:33:47;94198.53;;;-0.10;100.00
65181;BME280;51765;48.112;11.766;2022-12-10T10:36:14;94203.16;;;-0.28;100.00
65181;BME280;51765;48.112;11.766;2022-12-10T10:38:43;94209.63;;;-0.32;100.00
65181;BME280;51765;48.112;11.766;2022-12-10T10:41:14;94209.22;;;-0.21;100.00
65181;BME280;51765;48.112;11.766;2022-12-10T10:43:42;94205.50;;;-0.19;100.00
65181;BME280;51765;48.112;11.766;2022-12-10T10:46:11;94205.75;;;-0.05;100.00
65181;BME280;51765;48.112;11.766;2022-12-10T10:48:39;94206.03;;;0.00;100.00
65181;BME280;51765;48.112;11.766;2022-12-10T10:51:07;94203.28;;;0.02;100.00
65181;BME280;51765;48.112;11.766;2022-12-10T10:53:40;94204.91;;;-0.06;100.00
65181;BME280;51765;48.112;11.766;2022-12-10T10:56:09;94196.41;;;-0.06;100.00
65181;BME280;51765;48.112;11.766;2022-12-10T10:58:45;94195.09;;;-0.02;100.00
65181;BME280;51765;48.112;11.766;2022-12-10T11:01:16;94189.75;;;-0.01;100.00
65181;BME280;51765;48.112;11.766;2022-12-10T11:03:45;94188.69;;;-0.06;100.00
65181;BME280;51765;48.112;11.766;2022-12-10T11:06:16;94179.88;;;-0.12;100.00
65181;BME280;51765;48.112;11.766;2022-12-10T11:08:48;94174.91;;;-0.13;100.00
65181;BME280;51765;48.112;11.766;2022-12-10T11:11:18;94183.22;;;0.12;100.00
65181;BME280;51765;48.112;11.766;2022-12-10T11:13:47;94180.47;;;0.13;100.00
65181;BME280;51765;48.112;11.766;2022-12-10T11:16:17;94184.47;;;0.16;100.00
65181;BME280;51765;48.112;11.766;2022-12-10T11:18:51;94175.78;;;0.17;100.00
65181;BME280;51765;48.112;11.766;2022-12-10T11:21:18;94182.44;;;0.26;100.00
65181;BME280;51765;48.112;11.766;2022-12-10T11:23:47;94174.59;;;0.05;100.00
65181;BME280;51765;48.112;11.766;2022-12-10T11:26:23;94174.84;;;0.10;100.00
65181;BME280;51765;48.112;11.766;2022-12-10T11:29:00;94172.28;;;0.10;100.00
65181;BME280;51765;48.112;11.766;2022-12-10T11:31:37;94175.97;;;0.30;100.00
65181;BME280;51765;48.112;11.766;2022-12-10T11:34:11;94183.50;;;0.17;100.00
65181;BME280;51765;48.112;11.766;2022-12-10T11:36:42;94185.91;;;0.33;100.00
65181;BME280;51765;48.112;11.766;2022-12-10T11:39:17;94190.28;;;0.33;100.00
65181;BME280;51765;48.112;11.766;2022-12-10T11:41:49;94179.97;;;0.33;100.00
65181;BME280;51765;48.112;11.766;2022-12-10T11:44:23;94172.16;;;0.41;100.00
65181;BME280;51765;48.112;11.766;2022-12-10T11:47:03;94177.03;;;0.21;100.00
65181;BME280;51765;48.112;11.766;2022-12-10T11:49:37;94170.63;;;0.47;100.00
65181;BME280;51765;48.112;11.766;2022-12-10T11:52:06;94170.97;;;0.29;100.00
65181;BME280;51765;48.112;11.766;2022-12-10T11:57:23;94161.75;;;0.49;100.00
65181;BME280;51765;48.112;11.766;2022-12-10T11:59:58;94162.13;;;0.46;100.00
65181;BME280;51765;48.112;11.766;2022-12-10T12:02:32;94172.94;;;0.27;100.00
65181;BME280;51765;48.112;11.766;2022-12-10T12:05:13;94171.09;;;0.36;100.00
65181;BME280;51765;48.112;11.766;2022-12-10T12:07:45;94167.34;;;0.23;100.00
65181;BME280;51765;48.112;11.766;2022-12-10T12:10:19;94163.34;;;0.36;100.00
65181;BME280;51765;48.112;11.766;2022-12-10T12:12:52;94164.22;;;0.28;100.00
65181;BME280;51765;48.112;11.766;2022-12-10T12:15:25;94174.47;;;0.51;100.00
65181;BME280;51765;48.112;11.766;2022-12-10T12:18:01;94172.22;;;0.63;100.00
65181;BME280;51765;48.112;11.766;2022-12-10T12:20:29;94178.53;;;0.60;100.00
65181;BME280;51765;48.112;11.766;2022-12-10T12:22:58;94171.19;;;0.72;100.00
65181;BME280;51765;48.112;11.766;2022-12-10T12:25:27;94177.38;;;0.63;100.00
65181;BME280;51765;48.112;11.766;2022-12-10T12:28:00;94186.09;;;0.47;100.00
65181;BME280;51765;48.112;11.766;2022-12-10T12:30:31;94188.41;;;0.42;100.00
65181;BME280;51765;48.112;11.766;2022-12-10T12:33:05;94189.56;;;0.39;100.00
65181;BME280;51765;48.112;11.766;2022-12-10T12:35:37;94193.38;;;0.28;100.00
65181;BME280;51765;48.112;11.766;2022-12-10T12:38:06;94199.44;;;0.36;100.00
65181;BME280;51765;48.112;11.766;2022-12-10T12:40:48;94204.75;;;0.34;100.00
65181;BME280;51765;48.112;11.766;2022-12-10T12:43:19;94211.34;;;0.37;100.00
65181;BME280;51765;48.112;11.766;2022-12-10T12:45:49;94206.44;;;0.42;100.00
65181;BME280;51765;48.112;11.766;2022-12-10T12:48:23;94212.50;;;0.34;100.00
65181;BME280;51765;48.112;11.766;2022-12-10T12:50:53;94214.25;;;0.19;100.00
65181;BME280;51765;48.112;11.766;2022-12-10T12:53:22;94218.03;;;0.08;100.00
65181;BME280;51765;48.112;11.766;2022-12-10T12:55:52;94223.13;;;-0.07;100.00